Time;durP1;ratioP1;P1;durP2;ratioP2;P2;SDS_P1;SDS_P2;PMS_P1;PMS_P2;Temp;Humidity;BMP_temperature;BMP_pressure;BME280_temperature;BME280_humidity;BME280_pressure;Samples;Min_cycle;Max_cycle;Signal;HPM_P1;HPM_P2
2022/04/09 00:02:21;;;;;;;1.63;0.67;;;10.20;99.90;10.40;94934.00;;;;5075986;28;20234;-81
2022/04/09 00:05:11;;;;;;;3.07;0.60;;;;;9.70;94983.00;;;;5062050;28;20208;-83
2022/04/09 00:08:01;;;;;;;0.77;0.70;;;10.10;99.90;9.60;94991.00;;;;5058502;28;20208;-82
2022/04/09 00:10:50;;;;;;;1.83;0.70;;;9.90;99.90;9.90;94997.00;;;;5066116;28;20973;-81
2022/04/09 00:13:41;;;;;;;0.70;0.70;;;9.90;99.90;9.80;94993.00;;;;5064578;28;20195;-80
2022/04/09 00:16:30;;;;;;;1.73;0.70;;;;;9.80;95014.00;;;;5068778;28;20204;-80
2022/04/09 00:19:19;;;;;;;1.17;0.77;;;;;10.00;95025.00;;;;5078361;28;20203;-81
2022/04/09 00:22:08;;;;;;;0.50;0.50;;;10.00;99.90;9.70;95019.00;;;;5091733;28;20219;-84
2022/04/09 00:24:58;;;;;;;1.07;0.63;;;;;9.90;94993.00;;;;5091788;28;20215;-81
2022/04/09 00:27:47;;;;;;;2.40;0.70;;;9.70;99.90;10.20;94978.00;;;;5090859;28;20214;-82
2022/04/09 00:30:36;;;;;;;0.53;0.40;;;;;10.30;94960.00;;;;5092358;28;20223;-80
2022/04/09 00:33:24;;;;;;;0.60;0.60;;;10.00;99.90;10.30;94945.00;;;;5074209;28;20208;-81
2022/04/09 00:36:13;;;;;;;0.67;0.67;;;;;10.20;94945.00;;;;5072532;28;20215;-80
2022/04/09 00:39:02;;;;;;;0.80;0.80;;;;;10.10;94933.00;;;;5071303;28;20698;-80
2022/04/09 00:41:52;;;;;;;0.83;0.67;;;9.90;99.90;10.20;94935.00;;;;5068834;28;20223;-82
2022/04/09 00:44:41;;;;;;;0.83;0.70;;;;;10.20;94971.00;;;;5091353;28;20201;-82
2022/04/09 00:47:30;;;;;;;1.30;0.70;;;;;10.00;94974.00;;;;5091648;28;20195;-81
2022/04/09 00:50:19;;;;;;;3.10;0.80;;;9.80;99.90;10.20;94924.00;;;;5092175;28;20261;-81
2022/04/09 00:53:10;;;;;;;0.80;0.80;;;9.90;99.90;10.20;94885.00;;;;5085034;28;20559;-81
2022/04/09 00:56:16;;;;;;;1.40;1.30;;;;;10.00;94858.00;;;;5077791;28;20215;-80
2022/04/09 00:59:10;;;;;;;2.30;1.07;;;;;10.10;94859.00;;;;5068305;28;20202;-81
2022/04/09 01:01:58;;;;;;;2.43;0.80;;;9.80;99.90;10.10;94837.00;;;;5057938;28;20743;-81
2022/04/09 01:04:49;;;;;;;1.20;0.70;;;9.70;99.90;10.20;94774.00;;;;5073166;28;20201;-81
2022/04/09 01:07:39;;;;;;;2.67;0.60;;;9.80;99.90;10.10;94785.00;;;;5078089;28;20568;-82
2022/04/09 01:10:28;;;;;;;1.93;0.70;;;;;9.50;94826.00;;;;5077778;28;20216;-81
2022/04/09 01:13:17;;;;;;;0.60;0.57;;;9.70;99.90;9.60;94818.00;;;;5089265;28;20203;-81
2022/04/09 01:16:07;;;;;;;0.60;0.60;;;9.60;99.90;9.40;94828.00;;;;5075561;28;20210;-81
2022/04/09 01:18:56;;;;;;;1.73;0.87;;;9.60;99.90;9.20;94827.00;;;;5080978;28;20273;-82
2022/04/09 01:21:46;;;;;;;0.60;0.53;;;;;9.40;94811.00;;;;5070775;28;20226;-81
2022/04/09 01:24:36;;;;;;;0.80;0.80;;;9.40;99.90;9.30;94825.00;;;;5063874;28;20219;-81
2022/04/09 01:27:24;;;;;;;0.97;0.83;;;9.30;99.90;9.20;94829.00;;;;5065346;28;20653;-82
2022/04/09 01:30:16;;;;;;;0.60;0.60;;;9.20;99.90;9.20;94823.00;;;;5084194;28;20234;-81
2022/04/09 01:33:05;;;;;;;0.67;0.50;;;;;9.20;94832.00;;;;5064478;28;20203;-83
2022/04/09 01:35:54;;;;;;;0.50;0.50;;;9.10;99.90;9.20;94826.00;;;;5062118;28;20211;-81
2022/04/09 01:38:43;;;;;;;2.30;0.90;;;9.10;99.90;9.10;94827.00;;;;5068537;28;20211;-81
2022/04/09 01:41:33;;;;;;;0.40;0.40;;;9.00;99.90;9.30;94832.00;;;;5066156;28;20586;-82
2022/04/09 01:44:22;;;;;;;1.17;0.80;;;9.10;99.90;9.40;94828.00;;;;5061901;28;20200;-80
2022/04/09 01:47:10;;;;;;;0.50;0.50;;;9.10;99.90;9.40;94815.00;;;;5069794;28;20206;-80
2022/04/09 01:49:59;;;;;;;1.93;0.80;;;9.10;99.90;9.40;94820.00;;;;5084598;28;20587;-82
2022/04/09 01:52:48;;;;;;;0.80;0.70;;;9.10;99.90;9.30;94817.00;;;;5068571;28;20223;-81
2022/04/09 01:55:37;;;;;;;1.33;0.60;;;9.10;99.90;9.30;94810.00;;;;5069487;28;20472;-82
2022/04/09 01:58:27;;;;;;;0.60;0.60;;;9.10;99.90;9.40;94820.00;;;;5081138;28;20852;-82
2022/04/09 02:01:18;;;;;;;0.60;0.60;;;9.00;99.90;9.50;94820.00;;;;5074382;28;20967;-82
2022/04/09 02:04:07;;;;;;;0.60;0.50;;;9.10;99.90;9.50;94816.00;;;;5082433;28;20711;-81
2022/04/09 02:06:56;;;;;;;0.40;0.40;;;9.10;99.90;9.60;94822.00;;;;5087026;28;20910;-82
2022/04/09 02:09:44;;;;;;;0.67;0.67;;;9.10;99.90;9.50;94819.00;;;;5071415;28;20211;-80
2022/04/09 02:12:34;;;;;;;1.73;0.60;;;9.10;99.90;9.00;94809.00;;;;5067583;28;20566;-81
2022/04/09 02:15:24;;;;;;;2.77;0.80;;;8.80;99.90;9.10;94812.00;;;;5065411;28;20577;-82
2022/04/09 02:18:13;;;;;;;0.70;0.67;;;9.00;99.90;8.90;94810.00;;;;5066464;28;20200;-82
2022/04/09 02:21:02;;;;;;;1.27;0.77;;;8.80;99.90;8.90;94806.00;;;;5087603;28;20230;-82
2022/04/09 02:23:50;;;;;;;1.40;0.80;;;8.80;99.90;8.90;94804.00;;;;5060243;28;20194;-81
2022/04/09 02:26:39;;;;;;;1.23;0.80;;;8.80;99.90;8.50;94796.00;;;;5066604;28;20203;-81
2022/04/09 02:29:28;;;;;;;1.30;1.10;;;8.50;99.90;8.30;94786.00;;;;5072000;28;20211;-81
2022/04/09 02:32:18;;;;;;;0.83;0.83;;;;;8.00;94782.00;;;;5067045;28;20237;-81
2022/04/09 02:35:08;;;;;;;0.60;0.60;;;8.40;99.90;7.60;94776.00;;;;5070419;28;20208;-81
2022/04/09 02:37:57;;;;;;;2.30;1.00;;;8.20;99.90;7.50;94762.00;;;;5068477;28;20216;-83
2022/04/09 02:40:45;;;;;;;3.33;0.90;;;8.00;99.90;7.50;94763.00;;;;5066015;28;20220;-82
2022/04/09 02:43:34;;;;;;;1.13;0.90;;;7.80;99.90;7.50;94762.00;;;;5066559;28;20682;-81
2022/04/09 02:46:23;;;;;;;3.17;1.30;;;7.70;99.90;7.70;94761.00;;;;5063289;28;20200;-82
2022/04/09 02:49:13;;;;;;;1.10;0.90;;;7.70;99.90;7.80;94751.00;;;;5089280;28;20210;-81
2022/04/09 02:52:02;;;;;;;2.10;1.20;;;7.70;99.90;7.90;94755.00;;;;5089974;28;20253;-82
2022/04/09 02:54:51;;;;;;;1.20;1.10;;;7.70;99.90;7.90;94757.00;;;;5070021;28;20199;-81
2022/04/09 02:57:40;;;;;;;1.23;1.13;;;7.70;99.90;7.80;94743.00;;;;5076125;28;20192;-80
2022/04/09 03:00:29;;;;;;;3.67;1.07;;;7.70;99.90;7.70;94734.00;;;;5079016;28;20212;-83
2022/04/09 03:03:20;;;;;;;0.90;0.90;;;7.70;99.90;7.70;94724.00;;;;5070148;28;20211;-83
2022/04/09 03:06:10;;;;;;;1.60;0.80;;;7.60;99.90;7.50;94722.00;;;;5068546;28;20227;-81
2022/04/09 03:08:59;;;;;;;0.77;0.77;;;7.60;99.90;7.50;94716.00;;;;5068103;28;20591;-82
2022/04/09 03:11:47;;;;;;;4.23;0.90;;;7.30;99.90;7.50;94705.00;;;;5070608;28;20235;-82
2022/04/09 03:14:37;;;;;;;1.10;1.00;;;;;7.50;94706.00;;;;5069594;28;20249;-83
2022/04/09 03:17:26;;;;;;;0.70;0.70;;;;;7.50;94705.00;;;;5069020;28;20199;-81
2022/04/09 03:20:15;;;;;;;0.80;0.80;;;;;7.80;94711.00;;;;5071410;28;20595;-81
2022/04/09 03:23:05;;;;;;;1.90;1.00;;;8.30;99.90;7.80;94716.00;;;;5063861;28;20196;-81
2022/04/09 03:25:54;;;;;;;2.27;1.57;;;;;8.00;94718.00;;;;5068547;28;20200;-82
2022/04/09 03:28:43;;;;;;;1.40;1.30;;;7.60;99.90;8.00;94711.00;;;;5067819;28;20204;-81
2022/04/09 03:31:32;;;;;;;1.50;1.47;;;7.60;99.90;8.00;94709.00;;;;5064410;28;20228;-81
2022/04/09 03:34:21;;;;;;;1.57;1.40;;;7.60;99.90;7.80;94714.00;;;;5065898;28;21059;-82
2022/04/09 03:37:10;;;;;;;1.80;1.20;;;;;7.50;94715.00;;;;5088149;28;20693;-83
2022/04/09 03:40:02;;;;;;;0.90;0.90;;;;;7.50;94707.00;;;;5074207;28;20550;-82
2022/04/09 03:42:51;;;;;;;3.63;0.93;;;;;7.70;94704.00;;;;5061966;28;20203;-82
2022/04/09 03:45:40;;;;;;;1.70;1.23;;;;;7.40;94700.00;;;;5071498;28;20199;-83
2022/04/09 03:48:29;;;;;;;3.13;1.13;;;7.50;99.90;7.60;94690.00;;;;5077684;28;20212;-82
2022/04/09 03:51:18;;;;;;;1.60;1.43;;;7.30;99.90;7.60;94709.00;;;;5067608;28;20228;-82
2022/04/09 03:54:07;;;;;;;1.43;1.30;;;7.50;99.90;7.60;94720.00;;;;5070884;28;20212;-80
2022/04/09 03:56:58;;;;;;;3.77;1.03;;;7.50;99.90;7.50;94744.00;;;;5069396;28;20579;-82
2022/04/09 03:59:48;;;;;;;1.70;1.30;;;;;7.60;94749.00;;;;5071698;28;20204;-82
2022/04/09 04:02:37;;;;;;;1.20;1.10;;;;;7.60;94754.00;;;;5072135;28;20223;-83
2022/04/09 04:05:26;;;;;;;1.00;1.00;;;7.60;99.90;7.70;94757.00;;;;5073740;28;20211;-83
2022/04/09 04:08:15;;;;;;;1.33;0.87;;;7.10;99.90;7.90;94763.00;;;;5072597;28;20215;-83
2022/04/09 04:11:04;;;;;;;1.83;1.30;;;;;8.10;94769.00;;;;5072241;28;20698;-81
2022/04/09 04:13:55;;;;;;;1.33;1.20;;;7.60;99.90;8.30;94780.00;;;;5072728;28;20581;-83
2022/04/09 04:16:43;;;;;;;1.30;1.20;;;7.80;99.90;8.40;94790.00;;;;5061914;28;20199;-82
2022/04/09 04:19:32;;;;;;;1.07;0.90;;;8.00;99.90;8.30;94798.00;;;;5074238;28;20556;-81
2022/04/09 04:22:21;;;;;;;1.17;1.07;;;7.90;99.90;8.30;94811.00;;;;5074525;28;20223;-82
2022/04/09 04:25:10;;;;;;;1.20;0.90;;;7.10;99.90;8.40;94816.00;;;;5068105;28;20572;-82
2022/04/09 04:27:59;;;;;;;1.70;1.20;;;7.90;99.90;8.20;94819.00;;;;5064996;28;20693;-82
2022/04/09 04:30:49;;;;;;;2.03;1.37;;;7.90;99.90;8.10;94813.00;;;;5071514;28;20220;-82
2022/04/09 04:33:38;;;;;;;1.17;1.07;;;8.10;99.90;8.30;94811.00;;;;5066451;28;20214;-81
2022/04/09 04:36:27;;;;;;;1.20;1.10;;;8.00;99.90;8.50;94810.00;;;;5073464;28;20572;-82
2022/04/09 04:39:16;;;;;;;1.83;1.43;;;;;8.70;94805.00;;;;5070938;28;20681;-82
2022/04/09 04:42:07;;;;;;;1.67;1.57;;;;;9.00;94798.00;;;;5068229;28;20216;-82
2022/04/09 04:44:56;;;;;;;1.67;1.57;;;8.40;99.90;9.00;94808.00;;;;5067129;28;20681;-82
2022/04/09 04:47:47;;;;;;;1.50;1.40;;;8.30;99.90;9.10;94800.00;;;;5070314;28;20203;-83
2022/04/09 04:50:37;;;;;;;1.83;1.73;;;;;9.20;94804.00;;;;5073800;28;20196;-83
2022/04/09 04:53:26;;;;;;;2.17;1.87;;;8.50;99.90;8.90;94803.00;;;;5088413;28;21280;-82
2022/04/09 04:56:15;;;;;;;2.47;1.70;;;8.30;99.90;8.80;94815.00;;;;5092045;28;20206;-82
2022/04/09 04:59:04;;;;;;;1.53;1.43;;;8.50;99.90;8.60;94807.00;;;;5091049;28;20199;-82
2022/04/09 05:01:52;;;;;;;2.17;1.60;;;8.60;99.90;8.70;94819.00;;;;5091477;28;20227;-82
2022/04/09 05:04:42;;;;;;;1.90;1.80;;;8.50;99.90;8.80;94829.00;;;;5090078;28;20204;-81
2022/04/09 05:07:43;;;;;;;2.03;1.83;;;8.50;99.90;8.80;94827.00;;;;5091168;28;20195;-82
2022/04/09 05:10:31;;;;;;;3.77;2.00;;;8.50;99.90;8.90;94830.00;;;;5082297;28;20199;-82
2022/04/09 05:13:20;;;;;;;3.00;1.73;;;8.50;99.90;9.00;94834.00;;;;5089903;28;20705;-83
2022/04/09 05:16:09;;;;;;;2.53;2.10;;;8.60;99.90;8.80;94843.00;;;;5072187;28;20216;-82
2022/04/09 05:18:57;;;;;;;2.60;2.23;;;8.60;99.90;8.60;94839.00;;;;5065443;28;20575;-82
2022/04/09 05:21:48;;;;;;;4.30;2.23;;;8.60;99.90;8.90;94849.00;;;;5070395;28;20231;-82
2022/04/09 05:24:37;;;;;;;2.10;2.00;;;8.50;99.90;8.70;94862.00;;;;5069376;28;20200;-82
2022/04/09 05:27:26;;;;;;;3.07;1.90;;;8.50;99.90;8.70;94863.00;;;;5071154;28;20214;-82
2022/04/09 05:30:15;;;;;;;1.40;1.30;;;8.50;99.90;8.90;94871.00;;;;5071486;28;20589;-83
2022/04/09 05:33:04;;;;;;;1.93;1.83;;;8.50;99.90;8.90;94876.00;;;;5061366;28;20228;-82
2022/04/09 05:35:54;;;;;;;1.90;1.67;;;8.60;99.90;9.10;94896.00;;;;5066183;28;20211;-81
2022/04/09 05:38:44;;;;;;;2.60;1.70;;;8.60;99.90;9.00;94905.00;;;;5077656;28;20210;-82
2022/04/09 05:41:33;;;;;;;2.50;2.30;;;8.60;99.90;9.10;94902.00;;;;5065039;28;20606;-82
2022/04/09 05:44:22;;;;;;;2.23;2.03;;;8.70;99.90;9.20;94910.00;;;;5063414;28;20227;-83
2022/04/09 05:47:10;;;;;;;6.87;2.20;;;8.70;99.90;9.10;94910.00;;;;5056825;28;20204;-82
2022/04/09 05:49:59;;;;;;;2.23;2.03;;;8.70;99.90;9.10;94909.00;;;;5070255;28;20551;-83
2022/04/09 05:52:50;;;;;;;1.70;1.60;;;8.70;99.90;9.30;94917.00;;;;5063604;28;20829;-82
2022/04/09 05:55:40;;;;;;;3.07;1.90;;;8.80;99.90;9.20;94912.00;;;;5065135;28;20686;-81
2022/04/09 05:58:28;;;;;;;2.67;2.00;;;8.80;99.90;9.30;94923.00;;;;5059206;28;20199;-82
2022/04/09 06:01:17;;;;;;;7.63;2.43;;;8.80;99.90;9.20;94920.00;;;;5066142;28;20235;-82
2022/04/09 06:04:07;;;;;;;0.77;0.77;;;8.90;99.90;9.20;94924.00;;;;5065946;28;20212;-83
2022/04/09 06:06:56;;;;;;;1.73;0.90;;;8.90;99.90;9.30;94928.00;;;;5073708;28;20774;-82
2022/04/09 06:09:46;;;;;;;8.13;1.40;;;8.90;99.90;9.40;94938.00;;;;5067791;28;20602;-82
2022/04/09 06:12:37;;;;;;;3.33;0.97;;;8.90;99.90;9.30;94960.00;;;;5068183;28;20903;-81
2022/04/09 06:15:26;;;;;;;1.50;0.87;;;8.90;99.90;9.30;94966.00;;;;5066870;28;20878;-82
2022/04/09 06:18:15;;;;;;;2.00;0.67;;;8.90;99.90;9.20;94982.00;;;;5056511;28;20690;-82
2022/04/09 06:21:03;;;;;;;1.43;1.00;;;8.90;99.90;9.10;94990.00;;;;5076085;28;20223;-83
2022/04/09 06:23:52;;;;;;;1.80;0.87;;;8.90;99.90;9.20;94990.00;;;;5062998;28;20649;-81
2022/04/09 06:26:41;;;;;;;1.70;0.57;;;8.90;99.90;9.00;95000.00;;;;5059250;28;20200;-82
2022/04/09 06:29:31;;;;;;;0.40;0.40;;;8.90;99.90;9.10;95025.00;;;;5068034;28;20196;-82
2022/04/09 06:32:20;;;;;;;1.07;0.50;;;8.90;99.90;9.00;95041.00;;;;5069088;28;20583;-82
2022/04/09 06:35:09;;;;;;;0.40;0.40;;;8.80;99.90;9.20;95052.00;;;;5086567;28;20662;-82
2022/04/09 06:37:58;;;;;;;0.40;0.40;;;8.80;99.90;9.20;95071.00;;;;5069900;28;20200;-82
2022/04/09 06:40:47;;;;;;;0.40;0.40;;;8.90;99.90;9.00;95080.00;;;;5067611;28;20224;-81
2022/04/09 06:43:36;;;;;;;0.50;0.50;;;8.80;99.90;9.10;95083.00;;;;5060168;28;20248;-81
2022/04/09 06:46:26;;;;;;;0.30;0.30;;;8.80;99.90;8.90;95106.00;;;;5062323;28;20574;-81
2022/04/09 06:49:15;;;;;;;0.33;0.33;;;8.80;99.90;8.90;95121.00;;;;5058061;28;20249;-80
2022/04/09 06:52:05;;;;;;;1.03;0.50;;;8.70;99.90;8.90;95100.00;;;;5066170;28;20228;-81
2022/04/09 06:54:56;;;;;;;0.77;0.43;;;8.70;99.90;8.80;95103.00;;;;5060577;28;20197;-82
2022/04/09 06:57:45;;;;;;;1.00;0.47;;;8.60;99.90;8.90;95118.00;;;;5068720;28;20200;-81
2022/04/09 07:00:34;;;;;;;0.40;0.40;;;8.60;99.90;8.80;95132.00;;;;5055354;28;20674;-82
2022/04/09 07:03:24;;;;;;;0.53;0.30;;;8.50;99.90;8.80;95138.00;;;;5071038;28;20211;-81
2022/04/09 07:06:15;;;;;;;0.30;0.30;;;8.50;99.90;8.90;95141.00;;;;5079989;28;20203;-82
2022/04/09 07:09:05;;;;;;;0.53;0.40;;;8.50;99.90;8.70;95141.00;;;;5066733;28;21200;-80
2022/04/09 07:11:53;;;;;;;0.40;0.40;;;8.40;99.90;8.80;95154.00;;;;5064352;28;20566;-81
2022/04/09 07:14:42;;;;;;;1.17;0.50;;;8.40;99.90;8.70;95170.00;;;;5063710;28;20210;-80
2022/04/09 07:17:31;;;;;;;1.90;0.40;;;8.40;99.90;8.60;95175.00;;;;5061007;28;20249;-80
2022/04/09 07:20:21;;;;;;;0.40;0.40;;;8.30;99.90;8.20;95179.00;;;;5069461;28;20203;-81
2022/04/09 07:23:10;;;;;;;0.20;0.20;;;;;8.20;95183.00;;;;5064310;28;20215;-82
2022/04/09 07:25:59;;;;;;;0.53;0.40;;;8.20;99.90;8.70;95182.00;;;;5067532;28;20208;-82
2022/04/09 07:28:48;;;;;;;0.50;0.50;;;8.30;99.90;8.70;95175.00;;;;5060246;28;20227;-82
2022/04/09 07:31:36;;;;;;;0.30;0.30;;;8.30;99.90;8.80;95183.00;;;;5063990;28;20232;-81
2022/04/09 07:34:25;;;;;;;0.90;0.30;;;8.40;99.90;8.50;95176.00;;;;5072457;28;20216;-81
2022/04/09 07:37:15;;;;;;;0.20;0.20;;;8.40;99.90;8.60;95179.00;;;;5062615;28;20203;-81
2022/04/09 07:40:05;;;;;;;0.30;0.30;;;8.40;99.90;8.40;95166.00;;;;5063336;28;22547;-82
2022/04/09 07:42:54;;;;;;;0.30;0.30;;;8.40;99.90;8.70;95159.00;;;;5062831;28;20203;-80
2022/04/09 07:45:43;;;;;;;0.23;0.23;;;8.40;99.90;9.00;95164.00;;;;5064429;28;20200;-81
2022/04/09 07:48:33;;;;;;;0.30;0.30;;;8.40;99.90;9.00;95173.00;;;;5060829;28;20274;-80
2022/04/09 07:51:21;;;;;;;0.23;0.23;;;8.40;99.90;8.80;95198.00;;;;5063782;28;20220;-81
2022/04/09 07:54:13;;;;;;;0.30;0.30;;;8.50;99.90;8.80;95201.00;;;;5061603;28;20231;-81
2022/04/09 07:57:02;;;;;;;0.30;0.30;;;8.50;99.90;8.40;95202.00;;;;5062156;28;20207;-81
2022/04/09 07:59:51;;;;;;;0.27;0.27;;;8.40;99.90;8.20;95216.00;;;;5065900;28;20690;-81
2022/04/09 08:02:39;;;;;;;0.53;0.40;;;8.30;99.90;8.10;95236.00;;;;5063428;28;20239;-81
2022/04/09 08:05:28;;;;;;;0.90;0.60;;;8.20;99.90;8.20;95236.00;;;;5067338;28;20215;-81
2022/04/09 08:08:17;;;;;;;0.30;0.30;;;8.10;99.90;8.00;95218.00;;;;5065570;28;21001;-81
2022/04/09 08:11:08;;;;;;;0.30;0.30;;;8.00;99.90;8.00;95237.00;;;;5062342;28;20219;-80
2022/04/09 08:13:56;;;;;;;1.03;0.40;;;7.90;99.90;7.80;95236.00;;;;5060273;28;20231;-82
2022/04/09 08:16:46;;;;;;;0.30;0.30;;;;;7.90;95259.00;;;;5065513;28;20212;-82
2022/04/09 08:19:35;;;;;;;0.40;0.40;;;;;7.90;95247.00;;;;5066008;28;20211;-80
2022/04/09 08:22:26;;;;;;;0.30;0.30;;;7.70;99.90;7.70;95277.00;;;;5065454;28;20228;-84
2022/04/09 08:25:15;;;;;;;0.43;0.40;;;7.70;99.90;7.60;95280.00;;;;5063396;28;20204;-82
2022/04/09 08:28:06;;;;;;;0.40;0.40;;;7.40;99.90;7.90;95279.00;;;;5060026;28;20210;-83
2022/04/09 08:30:55;;;;;;;0.40;0.40;;;7.70;99.90;7.90;95263.00;;;;5064601;28;20228;-83
2022/04/09 08:33:44;;;;;;;0.30;0.30;;;7.60;99.90;7.90;95284.00;;;;5061032;28;22317;-84
2022/04/09 08:36:32;;;;;;;0.60;0.60;;;7.70;99.90;8.10;95273.00;;;;5064125;28;20696;-82
2022/04/09 08:39:21;;;;;;;0.30;0.30;;;7.70;99.90;7.70;95292.00;;;;5063686;28;20200;-81
2022/04/09 08:42:12;;;;;;;0.37;0.37;;;7.70;99.90;7.60;95294.00;;;;5073254;28;20215;-81
2022/04/09 08:45:03;;;;;;;0.67;0.67;;;7.70;99.90;8.00;95297.00;;;;5071552;28;20256;-83
2022/04/09 08:47:51;;;;;;;0.30;0.30;;;7.70;99.90;8.00;95290.00;;;;5068418;28;20200;-82
2022/04/09 08:50:44;;;;;;;0.33;0.33;;;7.80;99.90;7.90;95298.00;;;;5073439;28;20793;-82
2022/04/09 08:53:37;;;;;;;0.30;0.30;;;7.80;99.90;8.10;95345.00;;;;5069271;28;20605;-81
2022/04/09 08:56:31;;;;;;;0.40;0.40;;;7.80;99.90;7.90;95369.00;;;;5077217;28;20241;-82
2022/04/09 08:59:20;;;;;;;0.97;0.57;;;7.80;99.90;7.70;95412.00;;;;5072273;28;20199;-82
2022/04/09 09:02:10;;;;;;;0.30;0.30;;;7.80;99.90;7.80;95414.00;;;;5073680;28;20228;-81
2022/04/09 09:04:59;;;;;;;0.63;0.40;;;7.70;99.90;7.90;95426.00;;;;5070403;28;20233;-82
2022/04/09 09:07:48;;;;;;;0.50;0.50;;;7.70;99.90;7.70;95434.00;;;;5078325;28;20203;-82
2022/04/09 09:10:41;;;;;;;0.30;0.30;;;7.70;99.90;7.50;95435.00;;;;5067119;28;20200;-83
2022/04/09 09:13:31;;;;;;;0.30;0.30;;;;;7.90;95434.00;;;;5071585;28;21099;-81
2022/04/09 09:16:26;;;;;;;0.93;0.43;;;7.70;99.10;8.20;95448.00;;;;5072851;28;20227;-82
2022/04/09 09:19:16;;;;;;;0.30;0.30;;;7.70;99.90;8.10;95432.00;;;;5070283;28;20200;-81
2022/04/09 09:22:06;;;;;;;0.40;0.40;;;7.80;99.90;7.90;95469.00;;;;5073035;28;20219;-82
2022/04/09 09:25:08;;;;;;;1.23;0.40;;;7.90;96.10;8.40;95464.00;;;;5074297;28;20200;-82
2022/04/09 09:28:00;;;;;;;0.37;0.37;;;7.90;99.50;8.20;95506.00;;;;5075552;28;20227;-81
2022/04/09 09:30:51;;;;;;;0.40;0.40;;;8.00;97.90;8.00;95529.00;;;;5072248;28;20369;-81
2022/04/09 09:33:52;;;;;;;0.33;0.33;;;7.90;93.50;7.70;95557.00;;;;5069795;28;20228;-83
2022/04/09 09:36:56;;;;;;;0.30;0.30;;;;;7.40;95571.00;;;;5071155;28;20207;-82
2022/04/09 09:39:45;;;;;;;0.30;0.30;;;;;7.70;95583.00;;;;5068708;28;20718;-81
2022/04/09 09:42:35;;;;;;;0.30;0.30;;;;;7.90;95592.00;;;;5067801;28;20228;-81
2022/04/09 09:45:40;;;;;;;0.33;0.30;;;;;8.10;95604.00;;;;5069964;28;20215;-81
2022/04/09 09:48:35;;;;;;;0.67;0.50;;;;;8.00;95616.00;;;;5071067;28;20212;-82
2022/04/09 09:51:27;;;;;;;0.30;0.30;;;;;7.60;95624.00;;;;5070675;28;20230;-82
2022/04/09 09:54:18;;;;;;;0.47;0.47;;;;;7.90;95635.00;;;;5069245;28;20228;-84
2022/04/09 09:57:21;;;;;;;0.40;0.40;;;;;7.60;95641.00;;;;5072656;28;20200;-82
2022/04/09 10:00:14;;;;;;;0.53;0.40;;;;;7.20;95632.00;;;;5066291;28;20712;-83
2022/04/09 10:03:05;;;;;;;0.40;0.40;;;;;7.70;95642.00;;;;5067784;28;20208;-81
2022/04/09 10:05:55;;;;;;;0.70;0.60;;;;;7.90;95637.00;;;;5071610;28;20204;-82
2022/04/09 10:08:44;;;;;;;0.40;0.40;;;;;7.80;95635.00;;;;5069470;28;20259;-81
2022/04/09 10:11:37;;;;;;;0.50;0.50;;;;;7.10;95646.00;;;;5064821;28;20238;-81
2022/04/09 10:14:30;;;;;;;0.83;0.60;;;;;7.60;95635.00;;;;5066200;28;20222;-81
2022/04/09 10:17:20;;;;;;;0.57;0.53;;;7.50;92.20;7.20;95647.00;;;;5070134;28;20208;-82
2022/04/09 10:20:11;;;;;;;0.50;0.50;;;;;6.90;95653.00;;;;5068189;28;20203;-82
2022/04/09 10:23:06;;;;;;;1.23;0.77;;;7.30;91.20;7.30;95671.00;;;;5066805;28;20204;-81
2022/04/09 10:25:55;;;;;;;0.67;0.60;;;7.30;92.80;7.30;95677.00;;;;5068944;28;20200;-81
2022/04/09 10:28:50;;;;;;;0.57;0.57;;;7.30;91.00;7.20;95661.00;;;;5068818;28;20208;-86
2022/04/09 10:31:40;;;;;;;0.70;0.60;;;7.40;90.70;7.60;95664.00;;;;5063730;28;20219;-84
2022/04/09 10:34:50;;;;;;;2.00;0.63;;;7.40;90.30;7.90;95673.00;;;;5072603;28;20606;-82
2022/04/09 10:38:22;;;;;;;0.60;0.60;;;7.50;90.70;8.10;95685.00;;;;5069578;28;20204;-81
2022/04/09 10:41:27;;;;;;;1.00;0.60;;;7.60;91.30;7.50;95685.00;;;;5067609;28;20220;-83
2022/04/09 10:44:36;;;;;;;1.43;0.70;;;7.70;87.10;7.70;95707.00;;;;5069332;28;20666;-83
2022/04/09 10:47:24;;;;;;;0.57;0.57;;;7.60;86.50;7.70;95718.00;;;;5069561;28;20191;-81
2022/04/09 10:50:15;;;;;;;3.47;0.40;;;7.60;87.90;7.20;95711.00;;;;5067850;28;20207;-83
2022/04/09 10:53:09;;;;;;;0.87;0.80;;;;;7.10;95695.00;;;;5070367;28;20204;-85
2022/04/09 10:56:13;;;;;;;0.63;0.60;;;7.50;90.20;8.20;95718.00;;;;5067144;28;20707;-83
2022/04/09 10:59:46;;;;;;;0.50;0.50;;;7.60;91.50;7.70;95716.00;;;;5071976;28;20212;-84
2022/04/09 11:02:41;;;;;;;0.60;0.53;;;7.70;87.40;7.80;95737.00;;;;5073323;28;20705;-85
2022/04/09 11:05:30;;;;;;;0.93;0.57;;;7.70;89.00;8.30;95747.00;;;;5079149;28;20218;-82
2022/04/09 11:08:22;;;;;;;0.63;0.60;;;7.70;88.00;8.00;95741.00;;;;5080430;28;20200;-84
2022/04/09 11:11:11;;;;;;;0.50;0.50;;;7.90;89.00;8.30;95756.00;;;;5080189;28;20228;-83
2022/04/09 11:14:01;;;;;;;0.50;0.50;;;7.90;87.10;7.90;95750.00;;;;5076943;28;20199;-85
2022/04/09 11:16:54;;;;;;;0.50;0.50;;;8.00;86.90;7.90;95760.00;;;;5085565;28;20195;-81
2022/04/09 11:19:44;;;;;;;0.60;0.60;;;7.90;86.80;8.00;95763.00;;;;5075636;28;20235;-84
2022/04/09 11:22:37;;;;;;;1.77;0.90;;;7.90;85.00;8.40;95769.00;;;;5078726;28;20299;-84
2022/04/09 11:25:31;;;;;;;1.30;0.70;;;7.90;82.50;8.80;95798.00;;;;5074824;28;20284;-82
2022/04/09 11:28:23;;;;;;;1.23;0.80;;;8.10;83.60;8.80;95793.00;;;;5073867;28;20199;-82
2022/04/09 11:31:12;;;;;;;0.93;0.70;;;8.20;82.40;8.70;95793.00;;;;5071246;28;20231;-80
2022/04/09 11:34:04;;;;;;;0.83;0.50;;;8.30;81.20;8.20;95823.00;;;;5076449;28;20226;-83
2022/04/09 11:37:11;;;;;;;0.73;0.70;;;8.30;79.10;8.60;95834.00;;;;5071756;28;20200;-82
2022/04/09 11:40:17;;;;;;;0.50;0.50;;;8.30;79.20;8.30;95820.00;;;;5069711;28;20200;-81
2022/04/09 11:43:06;;;;;;;0.70;0.70;;;10.10;80.90;8.60;95795.00;;;;5073784;28;20204;-81
2022/04/09 11:46:05;;;;;;;0.70;0.70;;;8.30;80.50;8.40;95807.00;;;;5069794;28;20210;-83
2022/04/09 11:49:00;;;;;;;0.60;0.60;;;8.30;80.10;8.30;95816.00;;;;5044436;28;20228;-83
2022/04/09 11:51:56;;;;;;;0.70;0.70;;;8.30;79.80;8.30;95834.00;;;;5047841;28;21743;-84
2022/04/09 11:54:45;;;;;;;0.63;0.63;;;8.30;79.50;9.30;95831.00;;;;5041414;28;20229;-82
2022/04/09 11:57:34;;;;;;;0.97;0.87;;;8.50;78.50;9.30;95824.00;;;;5043662;28;20201;-84
2022/04/09 12:00:27;;;;;;;0.60;0.60;;;8.60;77.80;9.00;95832.00;;;;5048097;28;20209;-82
2022/04/09 12:03:16;;;;;;;0.77;0.77;;;8.80;76.50;9.00;95830.00;;;;5041471;28;20203;-82
2022/04/09 12:06:06;;;;;;;2.57;0.70;;;8.90;77.00;8.50;95812.00;;;;5048360;28;20209;-84
2022/04/09 12:08:57;;;;;;;0.57;0.57;;;8.80;78.10;8.10;95805.00;;;;5045920;28;20213;-82
2022/04/09 12:11:53;;;;;;;0.53;0.53;;;8.70;77.70;8.60;95825.00;;;;5050447;28;20224;-82
2022/04/09 12:14:52;;;;;;;1.83;1.23;;;8.60;76.20;9.00;95820.00;;;;5047252;28;20199;-82
2022/04/09 12:17:41;;;;;;;0.87;0.87;;;8.70;76.00;7.90;95813.00;;;;5052545;28;20200;-83
2022/04/09 12:20:35;;;;;;;1.40;1.00;;;8.50;69.30;9.20;95829.00;;;;5049697;28;20231;-82
2022/04/09 12:23:31;;;;;;;1.73;0.80;;;8.60;71.90;8.00;95799.00;;;;5057002;28;20675;-83
2022/04/09 12:26:25;;;;;;;1.30;0.80;;;8.60;65.80;8.90;95837.00;;;;5056267;28;20723;-82
2022/04/09 12:29:22;;;;;;;1.10;0.70;;;8.50;67.60;9.20;95847.00;;;;5046211;28;20211;-84
2022/04/09 12:32:16;;;;;;;1.40;0.83;;;8.70;69.30;8.90;95840.00;;;;5054159;28;20228;-82
2022/04/09 12:35:08;;;;;;;1.83;1.30;;;8.70;69.10;8.90;95849.00;;;;5044060;28;20695;-83
2022/04/09 12:37:56;;;;;;;1.37;0.90;;;8.80;65.30;8.50;95842.00;;;;5053481;28;20219;-81
2022/04/09 12:40:45;;;;;;;2.13;0.83;;;8.70;63.70;9.40;95866.00;;;;5065382;28;20205;-82
2022/04/09 12:43:37;;;;;;;1.17;1.07;;;8.80;67.10;8.90;95859.00;;;;5051311;28;20193;-82
2022/04/09 12:46:26;;;;;;;1.13;0.90;;;8.80;64.80;8.50;95867.00;;;;5052129;28;20204;-84
2022/04/09 12:49:14;;;;;;;1.03;0.93;;;8.90;62.60;8.80;95864.00;;;;5052788;28;20544;-83
2022/04/09 12:52:05;;;;;;;1.27;1.10;;;8.80;63.90;8.40;95851.00;;;;5048500;28;20243;-82
2022/04/09 12:54:55;;;;;;;1.60;0.97;;;8.80;60.00;8.90;95845.00;;;;5047631;28;20216;-83
2022/04/09 12:57:43;;;;;;;1.47;1.10;;;8.80;59.90;9.60;95867.00;;;;5046701;28;20212;-84
2022/04/09 13:00:33;;;;;;;1.37;0.90;;;8.90;62.30;10.20;95881.00;;;;5046402;28;20205;-82
2022/04/09 13:03:22;;;;;;;0.70;0.70;;;9.20;64.10;10.40;95887.00;;;;5049767;28;20243;-81
2022/04/09 13:06:11;;;;;;;0.70;0.70;;;9.40;64.80;10.00;95899.00;;;;5047099;28;20232;-82
2022/04/09 13:09:00;;;;;;;0.67;0.60;;;9.50;62.20;9.70;95887.00;;;;5047883;28;20239;-84
2022/04/09 13:11:49;;;;;;;1.07;0.97;;;9.50;61.70;8.20;95890.00;;;;5045103;28;20908;-85